createdAt,value
2022-12-08T00:00:06.071Z,2.07
2022-12-08T00:02:44.724Z,2.06
2022-12-08T00:05:30.315Z,2.10
2022-12-08T00:08:15.949Z,2.09
2022-12-08T00:10:49.988Z,2.05
2022-12-08T00:13:19.901Z,2.05
2022-12-08T00:15:48.238Z,1.95
2022-12-08T00:18:16.499Z,1.92
2022-12-08T00:20:44.745Z,1.94
2022-12-08T00:23:13.017Z,1.91
2022-12-08T00:25:41.247Z,1.91
2022-12-08T00:28:09.508Z,1.93
2022-12-08T00:30:40.870Z,1.80
2022-12-08T00:33:09.188Z,1.76
2022-12-08T00:35:42.791Z,1.84
2022-12-08T00:38:11.459Z,1.87
2022-12-08T00:40:39.710Z,1.84
2022-12-08T00:43:08.086Z,1.88
2022-12-08T00:45:38.698Z,1.84
2022-12-08T00:48:07.717Z,1.89
2022-12-08T00:50:36.317Z,1.86
2022-12-08T00:53:04.719Z,1.89
2022-12-08T00:55:32.961Z,1.87
2022-12-08T00:58:01.200Z,1.80
2022-12-08T01:00:29.596Z,1.84
2022-12-08T01:02:59.281Z,1.87
2022-12-08T01:05:27.846Z,1.90
2022-12-08T01:07:56.139Z,1.82
2022-12-08T01:10:24.541Z,1.73
2022-12-08T01:12:52.795Z,1.78
2022-12-08T01:15:21.503Z,1.74
2022-12-08T01:17:49.724Z,1.79
2022-12-08T01:20:19.428Z,1.70
2022-12-08T01:22:47.693Z,1.73
2022-12-08T01:25:16.047Z,1.83
2022-12-08T01:27:44.303Z,1.83
2022-12-08T01:30:13.765Z,1.82
2022-12-08T01:32:42.027Z,1.82
2022-12-08T01:35:10.766Z,1.82
2022-12-08T01:37:40.941Z,1.84
2022-12-08T01:40:10.318Z,1.80
2022-12-08T01:42:38.585Z,1.87
2022-12-08T01:45:08.284Z,1.86
2022-12-08T01:47:40.983Z,1.87
2022-12-08T01:50:12.166Z,1.87
2022-12-08T01:52:43.881Z,1.87
2022-12-08T01:55:16.336Z,2.06
2022-12-08T01:57:47.412Z,1.92
2022-12-08T02:00:17.924Z,1.73
2022-12-08T02:02:53.886Z,1.87
2022-12-08T02:05:24.474Z,1.85
2022-12-08T02:07:55.422Z,1.86
2022-12-08T02:10:25.407Z,1.93
2022-12-08T02:12:55.331Z,2.01
2022-12-08T02:15:27.948Z,1.96
2022-12-08T02:18:05.857Z,1.95
2022-12-08T02:20:45.559Z,2.02
2022-12-08T02:23:23.799Z,1.96
2022-12-08T02:26:11.746Z,1.84
2022-12-08T02:28:56.835Z,1.91
2022-12-08T02:31:35.673Z,1.86
2022-12-08T02:34:17.351Z,1.85
2022-12-08T02:36:50.689Z,1.77
2022-12-08T02:39:28.555Z,1.78
2022-12-08T02:42:02.256Z,1.82
2022-12-08T02:44:32.833Z,1.76
2022-12-08T02:47:05.706Z,1.84
2022-12-08T02:49:36.588Z,1.72
2022-12-08T02:52:09.956Z,1.77
2022-12-08T02:54:38.558Z,1.84
2022-12-08T02:57:20.212Z,1.85
2022-12-08T03:00:01.027Z,1.84
2022-12-08T03:02:43.150Z,1.89
2022-12-08T03:05:23.439Z,1.84
2022-12-08T03:07:56.921Z,1.86
2022-12-08T03:10:29.347Z,1.84
2022-12-08T03:13:00.227Z,1.86
2022-12-08T03:15:29.190Z,1.85
2022-12-08T03:17:59.718Z,1.82
2022-12-08T03:20:31.513Z,1.82
2022-12-08T03:23:01.694Z,1.90
2022-12-08T03:25:33.382Z,1.89
2022-12-08T03:28:01.855Z,1.80
2022-12-08T03:30:30.986Z,1.78
2022-12-08T03:33:03.710Z,1.80
2022-12-08T03:35:35.797Z,1.72
2022-12-08T03:38:05.177Z,1.70
2022-12-08T03:40:33.437Z,1.77
2022-12-08T03:43:02.131Z,1.84
2022-12-08T03:45:30.502Z,1.80
2022-12-08T03:47:59.762Z,1.72
2022-12-08T03:50:28.241Z,1.76
2022-12-08T03:52:58.067Z,1.85
2022-12-08T03:55:26.347Z,1.85
2022-12-08T03:57:54.602Z,1.85
2022-12-08T04:00:23.473Z,1.75
2022-12-08T04:02:51.787Z,1.74
2022-12-08T04:05:20.107Z,1.81
2022-12-08T04:07:48.356Z,1.85
2022-12-08T04:10:18.196Z,1.87
2022-12-08T04:12:46.384Z,1.89
2022-12-08T04:15:14.752Z,1.91
2022-12-08T04:17:43.028Z,1.94
2022-12-08T04:20:12.441Z,1.83
2022-12-08T04:22:40.866Z,1.91
2022-12-08T04:25:09.914Z,1.89
2022-12-08T04:27:39.666Z,1.89
2022-12-08T04:30:09.444Z,1.88
2022-12-08T04:32:38.964Z,1.82
2022-12-08T04:35:09.646Z,1.84
2022-12-08T04:37:37.917Z,1.82
2022-12-08T04:40:07.867Z,1.76
2022-12-08T04:42:36.111Z,1.78
2022-12-08T04:45:07.190Z,1.70
2022-12-08T04:47:36.005Z,1.79
2022-12-08T04:50:05.679Z,1.86
2022-12-08T04:52:34.370Z,1.90
2022-12-08T04:55:02.992Z,1.90
2022-12-08T04:57:31.409Z,1.91
2022-12-08T05:00:00.485Z,1.93
2022-12-08T05:02:30.387Z,1.96
2022-12-08T05:04:58.886Z,1.91
2022-12-08T05:07:28.059Z,1.77
2022-12-08T05:09:56.327Z,1.72
2022-12-08T05:12:24.929Z,1.71
2022-12-08T05:14:53.318Z,1.76
2022-12-08T05:17:21.688Z,1.71
2022-12-08T05:19:51.599Z,1.72
2022-12-08T05:22:19.985Z,1.69
2022-12-08T05:24:48.415Z,1.74
2022-12-08T05:27:17.325Z,1.81
2022-12-08T05:29:47.197Z,1.83
2022-12-08T05:32:15.697Z,1.82
2022-12-08T05:34:44.206Z,1.81
2022-12-08T05:37:14.038Z,1.92
2022-12-08T05:39:42.326Z,1.87
2022-12-08T05:42:10.816Z,1.77
2022-12-08T05:44:39.316Z,1.89
2022-12-08T05:47:07.643Z,1.84
2022-12-08T05:49:38.507Z,1.80
2022-12-08T05:52:07.492Z,1.88
2022-12-08T05:54:37.321Z,1.82
2022-12-08T05:57:05.766Z,1.93
2022-12-08T05:59:34.026Z,1.94
2022-12-08T06:02:02.437Z,1.96
2022-12-08T06:04:30.895Z,1.89
2022-12-08T06:06:59.314Z,1.86
2022-12-08T06:09:27.906Z,1.90
2022-12-08T06:11:57.596Z,1.93
2022-12-08T06:14:25.951Z,1.93
2022-12-08T06:16:54.266Z,1.98
2022-12-08T06:19:22.780Z,1.99
2022-12-08T06:21:51.149Z,1.97
2022-12-08T06:24:19.418Z,1.94
2022-12-08T06:26:47.818Z,1.96
2022-12-08T06:29:18.072Z,1.95
2022-12-08T06:31:47.001Z,1.86
2022-12-08T06:34:15.327Z,1.79
2022-12-08T06:36:43.801Z,1.73
2022-12-08T06:39:13.339Z,1.74
2022-12-08T06:41:55.831Z,1.78
2022-12-08T06:44:26.180Z,1.81
2022-12-08T06:46:54.573Z,1.81
2022-12-08T06:49:23.040Z,1.83
2022-12-08T06:51:51.301Z,1.79
2022-12-08T06:54:19.634Z,1.72
2022-12-08T06:56:47.908Z,1.77
2022-12-08T06:59:17.666Z,1.84
2022-12-08T07:01:47.469Z,1.84
2022-12-08T07:04:16.570Z,1.81
2022-12-08T07:06:45.116Z,1.84
2022-12-08T07:09:13.476Z,1.76
2022-12-08T07:11:42.176Z,1.80
2022-12-08T07:14:10.978Z,1.82
2022-12-08T07:16:39.615Z,1.78
2022-12-08T07:19:09.365Z,1.89
2022-12-08T07:21:37.717Z,1.96
2022-12-08T07:24:06.866Z,2.03
2022-12-08T07:26:35.392Z,2.04
2022-12-08T07:29:03.833Z,2.05
2022-12-08T07:31:32.334Z,1.90
2022-12-08T07:34:00.891Z,2.05
2022-12-08T07:36:30.686Z,2.08
2022-12-08T07:39:00.168Z,2.14
2022-12-08T07:41:28.499Z,2.05
2022-12-08T07:43:57.524Z,2.15
2022-12-08T07:46:26.777Z,2.17
2022-12-08T07:48:55.878Z,2.18
2022-12-08T07:51:24.983Z,2.19
2022-12-08T07:53:55.378Z,2.24
2022-12-08T07:56:24.373Z,2.19
2022-12-08T07:58:52.998Z,2.19
2022-12-08T08:01:23.224Z,2.14
2022-12-08T08:03:51.937Z,2.09
2022-12-08T08:06:20.232Z,2.21
2022-12-08T08:08:48.815Z,2.25
2022-12-08T08:11:21.315Z,2.27
2022-12-08T08:13:50.219Z,2.27
2022-12-08T08:16:19.750Z,2.25
2022-12-08T08:18:49.023Z,2.29
2022-12-08T08:24:06.797Z,2.31
2022-12-08T08:26:38.258Z,2.37
2022-12-08T08:29:06.581Z,2.51
2022-12-08T08:31:34.903Z,2.63
2022-12-08T08:34:06.343Z,2.54
2022-12-08T08:36:34.899Z,2.59
2022-12-08T08:39:03.927Z,2.49
2022-12-08T08:41:32.394Z,2.43
2022-12-08T08:44:02.272Z,2.35
2022-12-08T08:46:30.642Z,2.34
2022-12-08T08:48:59.367Z,2.28
2022-12-08T08:51:27.818Z,2.20
2022-12-08T08:53:56.202Z,2.34
2022-12-08T08:56:24.619Z,2.39
2022-12-08T08:58:54.340Z,2.43
2022-12-08T09:01:25.746Z,2.65
2022-12-08T09:03:55.286Z,2.60
2022-12-08T09:06:24.827Z,2.57
2022-12-08T09:08:53.552Z,2.54
2022-12-08T09:11:23.693Z,2.60
2022-12-08T09:13:55.541Z,2.61
2022-12-08T09:16:25.880Z,2.64
2022-12-08T09:18:54.297Z,2.65
2022-12-08T09:21:25.907Z,2.54
2022-12-08T09:23:56.351Z,2.61
2022-12-08T09:26:24.847Z,2.70
2022-12-08T09:28:54.132Z,2.69
2022-12-08T09:31:23.848Z,2.74
2022-12-08T09:33:53.832Z,2.81
2022-12-08T09:36:22.772Z,2.61
2022-12-08T09:38:53.606Z,2.67
2022-12-08T09:41:30.822Z,2.65
2022-12-08T09:44:08.877Z,2.79
2022-12-08T09:46:38.973Z,2.85
2022-12-08T09:49:14.386Z,2.79
2022-12-08T09:51:43.435Z,2.87
2022-12-08T09:54:16.290Z,2.90
2022-12-08T09:56:44.789Z,2.62
2022-12-08T09:59:24.379Z,2.61
2022-12-08T10:01:53.138Z,2.62
2022-12-08T10:04:25.748Z,2.80
2022-12-08T10:07:04.984Z,2.84
2022-12-08T10:09:39.359Z,2.86
2022-12-08T10:12:15.201Z,2.83
2022-12-08T10:14:44.929Z,2.87
2022-12-08T10:17:20.110Z,2.62
2022-12-08T10:19:51.075Z,2.68
2022-12-08T10:22:23.295Z,2.81
2022-12-08T10:25:00.420Z,2.97
2022-12-08T10:27:29.683Z,3.03
2022-12-08T10:29:58.166Z,2.83
2022-12-08T10:32:27.264Z,3.01
2022-12-08T10:35:07.192Z,3.25
2022-12-08T10:37:35.516Z,3.25
2022-12-08T10:40:10.388Z,3.21
2022-12-08T10:42:40.816Z,3.15
2022-12-08T10:45:22.234Z,3.08
2022-12-08T10:47:58.717Z,3.12
2022-12-08T10:50:34.390Z,3.08
2022-12-08T10:53:04.694Z,3.08
2022-12-08T10:55:42.505Z,3.02
2022-12-08T10:58:29.279Z,2.95
2022-12-08T11:01:00.238Z,3.02
2022-12-08T11:03:31.097Z,3.17
2022-12-08T11:06:09.011Z,3.25
2022-12-08T11:08:48.173Z,3.40
2022-12-08T11:11:17.040Z,3.36
2022-12-08T11:13:45.785Z,3.35
2022-12-08T11:16:16.362Z,3.04
2022-12-08T11:18:48.230Z,2.98
2022-12-08T11:21:19.600Z,2.95
2022-12-08T11:23:49.628Z,3.01
2022-12-08T11:26:23.115Z,3.09
2022-12-08T11:28:51.708Z,3.16
2022-12-08T11:31:26.677Z,3.09
2022-12-08T11:33:55.057Z,3.17
2022-12-08T11:36:27.110Z,3.15
2022-12-08T11:38:58.435Z,3.14
2022-12-08T11:41:29.913Z,3.18
2022-12-08T11:44:06.242Z,3.13
2022-12-08T11:46:39.645Z,3.25
2022-12-08T11:49:12.056Z,3.15
2022-12-08T11:51:48.429Z,3.19
2022-12-08T11:54:24.451Z,3.13
2022-12-08T11:56:57.164Z,3.26
2022-12-08T11:59:30.834Z,3.37
2022-12-08T12:02:00.393Z,3.45
2022-12-08T12:04:32.355Z,3.43
2022-12-08T12:07:26.497Z,3.54
2022-12-08T12:10:20.990Z,3.50
2022-12-08T12:13:00.636Z,3.65
2022-12-08T12:16:04.305Z,3.74
2022-12-08T12:18:35.696Z,3.65
2022-12-08T12:21:09.016Z,3.62
2022-12-08T12:23:42.767Z,3.57
2022-12-08T12:26:19.845Z,3.58
2022-12-08T12:28:52.694Z,3.63
2022-12-08T12:31:24.662Z,3.67
2022-12-08T12:33:55.606Z,3.67
2022-12-08T12:36:26.244Z,3.80
2022-12-08T12:39:06.378Z,3.75
2022-12-08T12:41:44.701Z,3.66
2022-12-08T12:44:43.638Z,3.68
2022-12-08T12:47:16.536Z,3.62
2022-12-08T12:50:07.727Z,3.69
2022-12-08T12:52:41.284Z,3.71
2022-12-08T12:55:29.490Z,3.60
2022-12-08T12:57:59.367Z,3.64
2022-12-08T13:00:28.767Z,3.62
2022-12-08T13:02:59.308Z,3.63
2022-12-08T13:05:29.164Z,3.61
2022-12-08T13:08:00.549Z,3.63
2022-12-08T13:10:32.854Z,3.66
2022-12-08T13:13:08.287Z,3.67
2022-12-08T13:15:38.410Z,3.62
2022-12-08T13:18:07.474Z,3.69
2022-12-08T13:20:43.515Z,3.76
2022-12-08T13:23:28.454Z,3.79
2022-12-08T13:26:22.586Z,3.78
2022-12-08T13:29:24.587Z,3.69
2022-12-08T13:31:54.372Z,3.61
2022-12-08T13:34:37.169Z,3.48
2022-12-08T13:37:20.369Z,3.62
2022-12-08T13:39:52.778Z,3.43
2022-12-08T13:42:26.663Z,3.52
2022-12-08T13:45:48.775Z,3.52
2022-12-08T13:52:29.491Z,3.46
2022-12-08T13:54:42.510Z,3.33
2022-12-08T13:59:28.246Z,3.14
2022-12-08T14:01:58.604Z,3.15
2022-12-08T14:04:54.337Z,3.24
2022-12-08T14:07:16.265Z,3.15
2022-12-08T14:09:44.782Z,3.09
2022-12-08T14:12:19.915Z,3.11
2022-12-08T14:15:06.529Z,2.88
2022-12-08T14:17:35.167Z,2.99
2022-12-08T14:20:06.736Z,2.85
2022-12-08T14:22:36.665Z,2.84
2022-12-08T14:25:06.729Z,2.71
2022-12-08T14:27:36.971Z,2.69
2022-12-08T14:30:08.462Z,2.75
2022-12-08T14:32:40.177Z,2.72
2022-12-08T14:35:21.841Z,2.71
2022-12-08T14:37:52.116Z,2.69
2022-12-08T14:40:24.224Z,2.66
2022-12-08T14:42:55.555Z,2.73
2022-12-08T14:45:25.584Z,2.77
2022-12-08T14:47:54.114Z,2.71
2022-12-08T14:50:41.252Z,2.61
2022-12-08T14:53:18.085Z,2.55
2022-12-08T14:55:48.836Z,2.61
2022-12-08T14:58:24.155Z,2.62
2022-12-08T15:00:58.435Z,2.62
2022-12-08T15:03:29.036Z,2.67
2022-12-08T15:05:59.879Z,2.69
2022-12-08T15:08:28.382Z,2.75
2022-12-08T15:11:26.492Z,2.72
2022-12-08T15:13:56.213Z,2.72
2022-12-08T15:16:32.266Z,2.65
2022-12-08T15:19:17.031Z,2.58
2022-12-08T15:21:47.961Z,2.54
2022-12-08T15:24:17.000Z,2.59
2022-12-08T15:26:47.760Z,2.63
2022-12-08T15:29:21.825Z,2.65
2022-12-08T15:31:52.676Z,2.69
2022-12-08T15:34:21.883Z,2.68
2022-12-08T15:36:51.939Z,2.65
2022-12-08T15:39:32.126Z,2.69
2022-12-08T15:42:02.550Z,2.70
2022-12-08T15:44:33.098Z,2.69
2022-12-08T15:47:03.123Z,2.70
2022-12-08T15:49:31.562Z,2.69
2022-12-08T15:52:10.753Z,2.70
2022-12-08T15:54:40.057Z,2.74
2022-12-08T15:57:20.217Z,2.75
2022-12-08T15:59:50.987Z,2.77
2022-12-08T16:02:22.808Z,2.76
2022-12-08T16:07:41.563Z,2.72
2022-12-08T16:10:12.673Z,2.76
2022-12-08T16:15:59.278Z,2.78
2022-12-08T16:18:33.232Z,2.73
2022-12-08T16:21:45.552Z,2.79
2022-12-08T16:23:50.437Z,2.78
2022-12-08T16:27:22.110Z,2.73
2022-12-08T16:29:12.390Z,2.73
2022-12-08T16:31:41.219Z,2.56
2022-12-08T16:34:11.427Z,2.52
2022-12-08T16:36:39.849Z,2.48
2022-12-08T16:39:09.468Z,2.56
2022-12-08T16:41:55.779Z,2.56
2022-12-08T16:44:24.522Z,2.57
2022-12-08T16:46:53.032Z,2.58
2022-12-08T16:49:24.253Z,2.56
2022-12-08T16:51:55.376Z,2.57
2022-12-08T16:54:24.456Z,2.50
2022-12-08T16:56:53.793Z,2.57
2022-12-08T16:59:22.566Z,2.53
2022-12-08T17:01:51.215Z,2.65
2022-12-08T17:04:34.894Z,2.65
2022-12-08T17:07:05.001Z,2.54
2022-12-08T17:09:33.675Z,2.49
2022-12-08T17:12:04.410Z,2.51
2022-12-08T17:14:35.172Z,2.66
2022-12-08T17:17:04.748Z,2.40
2022-12-08T17:19:34.750Z,2.42
2022-12-08T17:22:04.849Z,2.32
2022-12-08T17:24:33.327Z,2.32
2022-12-08T17:27:04.299Z,2.26
2022-12-08T17:29:34.083Z,2.26
2022-12-08T17:32:02.998Z,2.37
2022-12-08T17:34:31.910Z,2.36
2022-12-08T17:37:01.729Z,2.38
2022-12-08T17:39:33.183Z,2.38
2022-12-08T17:42:02.690Z,2.40
2022-12-08T17:44:31.210Z,2.42
2022-12-08T17:47:01.161Z,2.48
2022-12-08T17:49:31.361Z,2.44
2022-12-08T17:52:01.779Z,2.44
2022-12-08T17:54:33.046Z,2.54
2022-12-08T17:57:03.100Z,2.48
2022-12-08T17:59:32.286Z,2.41
2022-12-08T18:02:01.577Z,2.38
2022-12-08T18:04:32.085Z,2.43
2022-12-08T18:07:03.585Z,2.51
2022-12-08T18:09:35.793Z,2.44
2022-12-08T18:12:05.963Z,2.43
2022-12-08T18:14:34.987Z,2.56
2022-12-08T18:17:04.302Z,2.59
2022-12-08T18:19:33.035Z,2.68
2022-12-08T18:22:02.233Z,2.72
2022-12-08T18:24:31.961Z,2.61
2022-12-08T18:27:06.453Z,2.59
2022-12-08T18:29:36.471Z,2.58
2022-12-08T18:32:10.262Z,2.58
2022-12-08T18:34:41.617Z,2.54
2022-12-08T18:37:12.475Z,2.68
2022-12-08T18:39:41.312Z,2.69
2022-12-08T18:42:25.558Z,2.65
2022-12-08T18:45:07.968Z,2.63
2022-12-08T18:47:40.054Z,2.53
2022-12-08T18:50:11.593Z,2.43
2022-12-08T18:52:42.157Z,2.43
2022-12-08T18:55:12.585Z,2.53
2022-12-08T18:57:47.286Z,2.53
2022-12-08T19:00:18.749Z,2.45
2022-12-08T19:02:48.908Z,2.37
2022-12-08T19:05:18.528Z,2.34
2022-12-08T19:07:52.674Z,2.36
2022-12-08T19:10:23.385Z,2.19
2022-12-08T19:12:56.344Z,2.56
2022-12-08T19:15:26.720Z,2.34
2022-12-08T19:17:56.641Z,2.42
2022-12-08T19:20:34.635Z,2.38
2022-12-08T19:23:12.366Z,2.41
2022-12-08T19:25:43.655Z,2.48
2022-12-08T19:28:16.398Z,2.48
2022-12-08T19:30:48.538Z,2.48
2022-12-08T19:33:20.230Z,2.42
2022-12-08T19:35:52.725Z,2.50
2022-12-08T19:38:22.874Z,2.37
2022-12-08T19:41:10.094Z,2.74
2022-12-08T19:44:14.183Z,2.57
2022-12-08T19:46:44.400Z,2.46
2022-12-08T19:49:19.376Z,2.46
2022-12-08T19:51:53.432Z,2.39
2022-12-08T19:54:23.713Z,2.35
2022-12-08T19:56:55.062Z,2.28
2022-12-08T19:59:29.079Z,2.40
2022-12-08T20:02:01.141Z,2.54
2022-12-08T20:04:36.963Z,2.41
2022-12-08T20:07:06.018Z,2.41
2022-12-08T20:09:35.770Z,2.39
2022-12-08T20:12:10.121Z,2.33
2022-12-08T20:14:46.387Z,2.31
2022-12-08T20:17:20.372Z,2.23
2022-12-08T20:19:51.288Z,2.30
2022-12-08T20:22:32.794Z,2.53
2022-12-08T20:25:03.152Z,2.50
2022-12-08T20:27:35.682Z,2.51
2022-12-08T20:30:16.761Z,2.61
2022-12-08T20:32:58.756Z,2.40
2022-12-08T20:35:29.677Z,2.32
2022-12-08T20:38:00.039Z,2.30
2022-12-08T20:40:35.252Z,2.35
2022-12-08T20:43:09.511Z,2.35
2022-12-08T20:45:42.014Z,2.26
2022-12-08T20:48:26.242Z,2.13
2022-12-08T20:51:01.525Z,2.16
2022-12-08T20:53:35.012Z,2.27
2022-12-08T20:56:05.550Z,2.22
2022-12-08T20:58:41.213Z,2.24
2022-12-08T21:01:12.891Z,2.31
2022-12-08T21:03:44.123Z,2.25
2022-12-08T21:06:13.433Z,2.34
2022-12-08T21:08:43.380Z,2.29
2022-12-08T21:11:11.994Z,2.14
2022-12-08T21:13:43.469Z,2.17
2022-12-08T21:16:15.614Z,2.31
2022-12-08T21:18:45.215Z,2.14
2022-12-08T21:21:15.833Z,2.15
2022-12-08T21:23:44.710Z,2.10
2022-12-08T21:26:15.298Z,2.08
2022-12-08T21:28:44.140Z,2.08
2022-12-08T21:31:17.621Z,2.10
2022-12-08T21:33:47.095Z,2.21
2022-12-08T21:36:18.048Z,2.08
2022-12-08T21:38:47.615Z,2.20
2022-12-08T21:41:37.644Z,2.15
2022-12-08T21:44:06.652Z,2.08
2022-12-08T21:46:37.211Z,2.06
2022-12-08T21:49:06.384Z,1.89
2022-12-08T21:51:37.887Z,2.07
2022-12-08T21:54:06.435Z,1.88
2022-12-08T21:56:35.173Z,1.86
2022-12-08T21:59:03.565Z,1.80
2022-12-08T22:01:33.554Z,1.79
2022-12-08T22:04:04.572Z,1.75
2022-12-08T22:06:34.635Z,1.91
2022-12-08T22:09:03.208Z,1.93
2022-12-08T22:11:31.868Z,1.79
2022-12-08T22:14:12.560Z,1.80
2022-12-08T22:16:43.223Z,1.83
2022-12-08T22:19:14.606Z,1.76
2022-12-08T22:21:43.222Z,1.81
2022-12-08T22:24:12.203Z,1.83
2022-12-08T22:26:40.666Z,1.85
2022-12-08T22:29:09.944Z,1.88
2022-12-08T22:31:38.683Z,1.88
2022-12-08T22:34:07.451Z,1.93
2022-12-08T22:36:37.440Z,1.84
2022-12-08T22:39:06.640Z,1.76
2022-12-08T22:41:35.141Z,1.80
2022-12-08T22:44:06.609Z,1.76
2022-12-08T22:46:35.303Z,1.74
2022-12-08T22:49:03.957Z,1.80
2022-12-08T22:51:33.197Z,1.77
2022-12-08T22:54:02.975Z,1.76
2022-12-08T22:56:32.078Z,1.72
2022-12-08T22:59:00.555Z,1.78
2022-12-08T23:01:30.905Z,1.81
2022-12-08T23:04:00.305Z,1.78
2022-12-08T23:06:31.752Z,1.89
2022-12-08T23:09:00.672Z,1.92
2022-12-08T23:11:31.875Z,1.87
2022-12-08T23:14:01.221Z,1.84
2022-12-08T23:16:29.628Z,1.79
2022-12-08T23:18:58.107Z,1.79
2022-12-08T23:21:26.462Z,1.82
2022-12-08T23:23:55.140Z,1.79
2022-12-08T23:26:25.459Z,1.65
2022-12-08T23:28:55.661Z,1.58
2022-12-08T23:31:24.849Z,1.72
2022-12-08T23:33:54.241Z,1.69
2022-12-08T23:36:26.283Z,1.68
2022-12-08T23:38:54.960Z,1.72
2022-12-08T23:41:24.046Z,1.66
2022-12-08T23:43:54.578Z,1.62
2022-12-08T23:46:23.719Z,1.58
2022-12-08T23:48:52.804Z,1.68
2022-12-08T23:51:22.032Z,1.67
2022-12-08T23:53:50.410Z,1.65
2022-12-08T23:56:19.359Z,1.66
2022-12-08T23:58:47.979Z,1.68
